Time;durP1;ratioP1;P1;durP2;ratioP2;P2;SDS_P1;SDS_P2;PMS_P1;PMS_P2;Temp;Humidity;BMP_temperature;BMP_pressure;BME280_temperature;BME280_humidity;BME280_pressure;Samples;Min_cycle;Max_cycle;Signal;HPM_P1;HPM_P2
2023/09/14 00:00:50;;;;;;;0.75;0.75;;;;;;;;;;5061532;28;20838;-74
2023/09/14 00:03:23;;;;;;;1.63;0.57;;;;;;;;;;5062230;28;20072;-75
2023/09/14 00:05:57;;;;;;;0.90;0.70;;;;;;;;;;5062245;28;20416;-75
2023/09/14 00:08:32;;;;;;;0.88;0.88;;;;;;;;;;5065732;28;20064;-75
2023/09/14 00:11:06;;;;;;;1.60;0.60;;;;;;;;;;5065454;28;20411;-76
2023/09/14 00:13:39;;;;;;;1.45;0.95;;;;;;;;;;5064619;28;20087;-77
2023/09/14 00:16:13;;;;;;;2.03;1.13;;;;;;;;;;5064770;28;20045;-74
2023/09/14 00:18:50;;;;;;;0.75;0.57;;;;;;;;;;5064468;28;20534;-75
2023/09/14 00:21:22;;;;;;;0.55;0.55;;;;;;;;;;5064552;28;20463;-75
2023/09/14 00:23:54;;;;;;;0.60;0.50;;;;;;;;;;5064561;28;20056;-75
2023/09/14 00:26:29;;;;;;;0.60;0.60;;;;;;;;;;5064689;28;20052;-75
2023/09/14 00:29:00;;;;;;;0.77;0.57;;;;;;;;;;5065295;28;20048;-74
2023/09/14 00:31:38;;;;;;;0.57;0.40;;;;;;;;;;5063375;28;20064;-74
2023/09/14 00:34:11;;;;;;;0.60;0.60;;;;;;;;;;5064830;28;20045;-75
2023/09/14 00:36:43;;;;;;;1.10;0.45;;;;;;;;;;5064678;28;20645;-75
2023/09/14 00:39:15;;;;;;;0.70;0.70;;;;;;;;;;5064787;28;20053;-75
2023/09/14 00:41:51;;;;;;;4.25;0.80;;;;;;;;;;5064100;28;20059;-74
2023/09/14 00:44:24;;;;;;;2.63;0.82;;;;;;;;;;5064582;28;20613;-74
2023/09/14 00:46:57;;;;;;;1.00;0.80;;;;;;;;;;5062505;28;20063;-75
2023/09/14 00:49:28;;;;;;;2.20;2.00;;;;;;;;;;5063111;28;20518;-75
2023/09/14 00:52:04;;;;;;;;;;;;;;;;;;5065251;28;20037;-75
2023/09/14 00:54:41;;;;;;;0.60;0.60;;;;;;;;;;5062627;28;20295;-74
2023/09/14 00:57:20;;;;;;;0.70;0.50;;;;;;;;;;5064252;28;20056;-74
2023/09/14 00:59:53;;;;;;;1.23;0.50;;;;;;;;;;5064465;28;20044;-75
2023/09/14 01:02:29;;;;;;;1.40;0.57;;;;;;;;;;5064369;28;20052;-75
2023/09/14 01:05:05;;;;;;;0.95;0.73;;;;;;;;;;5063344;28;20048;-75
2023/09/14 01:07:40;;;;;;;0.52;0.52;;;;;;;;;;5062314;28;20087;-74
2023/09/14 01:10:17;;;;;;;0.47;0.47;;;;;;;;;;5063552;28;20057;-75
2023/09/14 01:12:50;;;;;;;0.30;0.30;;;;;;;;;;5051864;28;20515;-75
2023/09/14 01:15:48;;;;;;;0.32;0.32;;;;;;;;;;5061488;28;20056;-75
2023/09/14 01:18:57;;;;;;;2.17;0.50;;;;;;;;;;5062274;28;20041;-74
2023/09/14 01:21:43;;;;;;;2.17;0.25;;;;;;;;;;4998368;28;21181;-74
2023/09/14 01:24:30;;;;;;;0.88;0.80;;;;;;;;;;5063626;28;20053;-74
2023/09/14 01:27:04;;;;;;;0.52;0.52;;;;;;;;;;5046019;28;20520;-74
2023/09/14 01:29:38;;;;;;;1.23;0.32;;;;;;;;;;5062198;28;20049;-74
2023/09/14 01:32:11;;;;;;;0.30;0.30;;;;;;;;;;5063041;28;20053;-75
2023/09/14 01:34:47;;;;;;;0.68;0.50;;;;;;;;;;5062953;28;20056;-75
2023/09/14 01:37:21;;;;;;;0.40;0.40;;;;;;;;;;5062256;28;20561;-75
2023/09/14 01:39:54;;;;;;;0.40;0.40;;;;;;;;;;5064523;28;20049;-75
2023/09/14 01:42:25;;;;;;;0.22;0.20;;;;;;;;;;5062085;28;20681;-75
2023/09/14 01:44:59;;;;;;;1.35;0.25;;;;;;;;;;5061953;28;20053;-74
2023/09/14 01:47:31;;;;;;;2.05;0.40;;;;;;;;;;5063429;28;20552;-75
2023/09/14 01:50:05;;;;;;;0.20;0.20;;;;;;;;;;5063088;28;20406;-75
2023/09/14 01:52:37;;;;;;;1.85;0.47;;;;;;;;;;5063426;28;20055;-74
2023/09/14 01:55:10;;;;;;;0.20;0.20;;;;;;;;;;5063191;28;20044;-74
2023/09/14 01:57:42;;;;;;;0.73;0.40;;;;;;;;;;5060870;28;20053;-74
2023/09/14 02:00:15;;;;;;;0.30;0.30;;;;;;;;;;5061952;28;20055;-74
2023/09/14 02:02:47;;;;;;;0.32;0.32;;;;;;;;;;5063953;28;20048;-75
2023/09/14 02:05:21;;;;;;;4.72;0.20;;;;;;;;;;5062119;28;20052;-75
2023/09/14 02:07:53;;;;;;;0.40;0.40;;;;;;;;;;5061042;28;20053;-75
2023/09/14 02:10:29;;;;;;;0.17;0.17;;;;;;;;;;5061282;28;20056;-76
2023/09/14 02:13:00;;;;;;;0.40;0.40;;;;;;;;;;5063369;28;20048;-74
2023/09/14 02:15:33;;;;;;;0.40;0.40;;;;;;;;;;5061602;28;20099;-75
2023/09/14 02:18:05;;;;;;;0.63;0.20;;;;;;;;;;5061530;28;20112;-76
2023/09/14 02:20:38;;;;;;;0.20;0.20;;;;;;;;;;5061196;28;20052;-74
2023/09/14 02:23:09;;;;;;;0.30;0.30;;;;;;;;;;5062678;28;20403;-75
2023/09/14 02:25:44;;;;;;;0.28;0.28;;;;;;;;;;5062689;28;20423;-75
2023/09/14 02:28:19;;;;;;;0.90;0.38;;;;;;;;;;5062158;28;20431;-75
2023/09/14 02:30:50;;;;;;;0.20;0.20;;;;;;;;;;5060680;28;20037;-75
2023/09/14 02:33:21;;;;;;;0.10;0.10;;;;;;;;;;5061333;28;20053;-75
2023/09/14 02:35:54;;;;;;;0.38;0.20;;;;;;;;;;5062680;28;20583;-75
2023/09/14 02:38:25;;;;;;;0.17;0.17;;;;;;;;;;5064536;28;20045;-75
2023/09/14 02:40:57;;;;;;;0.28;0.10;;;;;;;;;;5060869;28;20048;-75
2023/09/14 02:43:28;;;;;;;0.10;0.10;;;;;;;;;;5061211;28;20059;-75
2023/09/14 02:45:59;;;;;;;0.20;0.20;;;;;;;;;;5060388;28;20056;-76
2023/09/14 02:48:31;;;;;;;0.35;0.10;;;;;;;;;;5060664;28;20052;-75
2023/09/14 02:51:04;;;;;;;0.00;0.00;;;;;;;;;;5060338;28;20053;-75
2023/09/14 02:53:34;;;;;;;2.05;0.20;;;;;;;;;;5060830;28;20053;-75
2023/09/14 02:56:10;;;;;;;0.10;0.10;;;;;;;;;;5062684;28;20079;-74
2023/09/14 02:58:41;;;;;;;0.17;0.17;;;;;;;;;;5060072;28;20048;-74
2023/09/14 03:01:13;;;;;;;0.47;0.30;;;;;;;;;;5060802;28;20052;-75
2023/09/14 03:03:44;;;;;;;0.10;0.10;;;;;;;;;;5060724;28;20056;-74
2023/09/14 03:06:16;;;;;;;0.20;0.20;;;;;;;;;;5060637;28;20052;-75
2023/09/14 03:08:49;;;;;;;0.30;0.30;;;;;;;;;;5060283;28;20427;-75
2023/09/14 03:11:20;;;;;;;0.22;0.20;;;;;;;;;;5044011;28;20071;-75
2023/09/14 03:13:51;;;;;;;0.95;0.80;;;;;;;;;;5062356;28;20411;-74
2023/09/14 03:16:22;;;;;;;0.10;0.10;;;;;;;;;;5060345;28;20071;-75
2023/09/14 03:18:53;;;;;;;0.30;0.30;;;;;;;;;;5060933;28;20060;-74
2023/09/14 03:21:28;;;;;;;1.15;0.40;;;;;;;;;;5060373;28;20049;-75
2023/09/14 03:23:59;;;;;;;2.55;0.28;;;;;;;;;;5058882;28;20065;-74
2023/09/14 03:26:31;;;;;;;0.20;0.20;;;;;;;;;;5060360;28;20052;-74
2023/09/14 03:29:02;;;;;;;0.30;0.30;;;;;;;;;;5062550;28;20048;-75
2023/09/14 03:31:33;;;;;;;0.00;0.00;;;;;;;;;;5060410;28;20051;-75
2023/09/14 03:34:07;;;;;;;0.13;0.13;;;;;;;;;;5061501;28;20686;-76
2023/09/14 03:36:39;;;;;;;1.75;0.13;;;;;;;;;;5060092;28;20060;-75
2023/09/14 03:39:12;;;;;;;0.93;0.40;;;;;;;;;;5059836;28;20053;-76
2023/09/14 03:41:44;;;;;;;0.30;0.30;;;;;;;;;;5061808;28;20056;-75
2023/09/14 03:44:16;;;;;;;0.10;0.10;;;;;;;;;;5066079;28;20382;-75
2023/09/14 03:46:48;;;;;;;0.98;0.43;;;;;;;;;;5064190;28;20048;-76
2023/09/14 03:49:20;;;;;;;0.93;0.30;;;;;;;;;;5066106;28;20044;-75
2023/09/14 03:51:51;;;;;;;0.20;0.20;;;;;;;;;;5064351;28;20063;-76
2023/09/14 03:54:21;;;;;;;0.08;0.08;;;;;;;;;;5063999;28;20052;-76
2023/09/14 03:56:53;;;;;;;0.10;0.10;;;;;;;;;;5047968;28;20045;-76
2023/09/14 03:59:25;;;;;;;0.30;0.30;;;;;;;;;;5063833;28;20056;-76
2023/09/14 04:01:56;;;;;;;0.20;0.00;;;;;;;;;;5064092;28;20410;-75
2023/09/14 04:04:27;;;;;;;0.28;0.28;;;;;;;;;;5063602;28;20056;-75
2023/09/14 04:06:59;;;;;;;0.20;0.20;;;;;;;;;;5062998;28;20783;-74
2023/09/14 04:09:30;;;;;;;0.20;0.20;;;;;;;;;;5063380;28;20049;-77
2023/09/14 04:12:01;;;;;;;0.35;0.25;;;;;;;;;;5065237;28;20052;-75
2023/09/14 04:14:32;;;;;;;0.95;0.20;;;;;;;;;;5063771;28;20056;-74
2023/09/14 04:17:04;;;;;;;0.17;0.17;;;;;;;;;;5063787;28;20048;-75
2023/09/14 04:19:35;;;;;;;0.65;0.20;;;;;;;;;;5065253;28;20044;-75
2023/09/14 04:22:06;;;;;;;0.25;0.25;;;;;;;;;;5063851;28;20904;-75
2023/09/14 04:24:37;;;;;;;0.25;0.25;;;;;;;;;;5063219;28;20059;-75
2023/09/14 04:27:09;;;;;;;0.30;0.30;;;;;;;;;;5065337;28;20079;-75
2023/09/14 04:29:40;;;;;;;0.00;0.00;;;;;;;;;;5063308;28;20049;-75
2023/09/14 04:32:11;;;;;;;0.10;0.10;;;;;;;;;;5065569;28;20847;-75
2023/09/14 04:34:42;;;;;;;0.30;0.20;;;;;;;;;;5063784;28;20056;-74
2023/09/14 04:37:14;;;;;;;1.85;0.43;;;;;;;;;;5047813;28;20052;-75
2023/09/14 04:39:46;;;;;;;0.20;0.20;;;;;;;;;;5064606;28;20040;-75
2023/09/14 04:42:17;;;;;;;0.93;0.38;;;;;;;;;;5064340;28;20060;-75
2023/09/14 04:44:50;;;;;;;0.20;0.20;;;;;;;;;;5063099;28;20048;-74
2023/09/14 04:47:22;;;;;;;0.10;0.10;;;;;;;;;;5062647;28;20853;-74
2023/09/14 04:49:53;;;;;;;0.35;0.30;;;;;;;;;;5062986;28;20044;-74
2023/09/14 04:52:24;;;;;;;2.00;0.17;;;;;;;;;;5062212;28;20612;-73
2023/09/14 04:54:55;;;;;;;0.10;0.10;;;;;;;;;;5063804;28;20048;-74
2023/09/14 04:57:27;;;;;;;0.00;0.00;;;;;;;;;;5062844;28;20496;-75
2023/09/14 04:59:58;;;;;;;2.05;0.15;;;;;;;;;;5064640;28;20044;-74
2023/09/14 05:02:29;;;;;;;0.00;0.00;;;;;;;;;;5063687;28;20053;-74
2023/09/14 05:05:01;;;;;;;2.42;0.25;;;;;;;;;;5063262;28;20063;-74
2023/09/14 05:07:32;;;;;;;0.25;0.20;;;;;;;;;;5063675;28;20479;-75
2023/09/14 05:10:04;;;;;;;0.65;0.65;;;;;;;;;;5062016;28;20737;-75
2023/09/14 05:12:35;;;;;;;0.20;0.20;;;;;;;;;;5062412;28;20063;-74
2023/09/14 05:15:06;;;;;;;0.63;0.20;;;;;;;;;;5045855;28;20590;-74
2023/09/14 05:17:38;;;;;;;0.25;0.25;;;;;;;;;;5064070;28;20059;-74
2023/09/14 05:20:11;;;;;;;0.32;0.32;;;;;;;;;;5061963;28;20048;-74
2023/09/14 05:22:42;;;;;;;0.30;0.30;;;;;;;;;;5062398;28;20057;-73
2023/09/14 05:25:14;;;;;;;3.13;0.30;;;;;;;;;;5062286;28;20059;-74
2023/09/14 05:27:46;;;;;;;0.25;0.25;;;;;;;;;;5062169;28;20883;-74
2023/09/14 05:30:21;;;;;;;0.60;0.60;;;;;;;;;;5061517;28;20040;-74
2023/09/14 05:32:53;;;;;;;1.95;0.57;;;;;;;;;;5062101;28;20553;-74
2023/09/14 05:35:26;;;;;;;0.40;0.40;;;;;;;;;;5063612;28;20562;-74
2023/09/14 05:37:57;;;;;;;0.88;0.38;;;;;;;;;;5062093;28;20049;-75
2023/09/14 05:40:33;;;;;;;0.30;0.30;;;;;;;;;;5062172;28;20065;-74
2023/09/14 05:43:04;;;;;;;0.70;0.20;;;;;;;;;;5061896;28;20052;-75
2023/09/14 05:45:34;;;;;;;0.35;0.10;;;;;;;;;;5062078;28;20454;-74
2023/09/14 05:48:06;;;;;;;0.10;0.10;;;;;;;;;;5061804;28;20685;-75
2023/09/14 05:50:37;;;;;;;0.03;0.03;;;;;;;;;;5062050;28;20071;-75
2023/09/14 05:53:09;;;;;;;0.40;0.40;;;;;;;;;;5061461;28;20049;-74
2023/09/14 05:55:40;;;;;;;0.55;0.38;;;;;;;;;;5063485;28;20507;-73
2023/09/14 05:58:12;;;;;;;0.28;0.28;;;;;;;;;;5061870;28;20055;-74
2023/09/14 06:00:45;;;;;;;0.47;0.47;;;;;;;;;;5061777;28;20059;-75
2023/09/14 06:03:16;;;;;;;0.75;0.30;;;;;;;;;;5062946;28;20059;-74
2023/09/14 06:05:47;;;;;;;0.35;0.35;;;;;;;;;;5062655;28;20044;-74
2023/09/14 06:08:19;;;;;;;0.65;0.63;;;;;;;;;;5061726;28;20052;-74
2023/09/14 06:10:50;;;;;;;0.50;0.32;;;;;;;;;;5061223;28;20498;-74
2023/09/14 06:13:22;;;;;;;2.28;0.60;;;;;;;;;;5061768;28;20060;-74
2023/09/14 06:15:53;;;;;;;2.78;0.22;;;;;;;;;;5061524;28;20041;-75
2023/09/14 06:18:24;;;;;;;2.47;0.60;;;;;;;;;;5063203;28;20545;-75
2023/09/14 06:20:55;;;;;;;0.40;0.35;;;;;;;;;;5063097;28;20049;-74
2023/09/14 06:23:26;;;;;;;1.42;0.10;;;;;;;;;;5062327;28;20419;-73
2023/09/14 06:25:57;;;;;;;1.45;0.52;;;;;;;;;;5062791;28;20037;-74
2023/09/14 06:28:29;;;;;;;1.55;0.30;;;;;;;;;;5062661;28;20665;-74
2023/09/14 06:30:59;;;;;;;0.40;0.40;;;;;;;;;;5063448;28;20460;-74
2023/09/14 06:33:30;;;;;;;1.13;0.40;;;;;;;;;;5062586;28;20052;-74
2023/09/14 06:36:01;;;;;;;0.47;0.30;;;;;;;;;;5062195;28;20503;-73
2023/09/14 06:38:33;;;;;;;1.65;0.22;;;;;;;;;;5062194;28;20047;-75
2023/09/14 06:41:06;;;;;;;1.05;0.30;;;;;;;;;;5061970;28;20049;-74
2023/09/14 06:43:37;;;;;;;0.77;0.40;;;;;;;;;;5062163;28;20048;-74
2023/09/14 06:46:10;;;;;;;0.35;0.35;;;;;;;;;;5062872;28;20037;-74
2023/09/14 06:48:41;;;;;;;0.82;0.52;;;;;;;;;;5060994;28;20044;-73
2023/09/14 06:51:14;;;;;;;1.58;0.45;;;;;;;;;;5062104;28;20499;-74
2023/09/14 06:53:47;;;;;;;0.95;0.80;;;;;;;;;;5062017;28;20044;-74
2023/09/14 06:56:18;;;;;;;2.05;0.43;;;;;;;;;;5062132;28;20052;-74
2023/09/14 06:58:49;;;;;;;0.60;0.50;;;;;;;;;;5062612;28;20052;-74
2023/09/14 07:01:21;;;;;;;2.10;0.30;;;;;;;;;;5062161;28;20047;-74
2023/09/14 07:03:52;;;;;;;0.80;0.50;;;;;;;;;;5062427;28;20045;-74
2023/09/14 07:06:23;;;;;;;0.93;0.55;;;;;;;;;;5062115;28;20119;-73
2023/09/14 07:08:55;;;;;;;1.23;0.40;;;;;;;;;;5061185;28;20084;-75
2023/09/14 07:11:26;;;;;;;1.42;0.60;;;;;;;;;;5061737;28;20047;-75
2023/09/14 07:13:58;;;;;;;0.82;0.70;;;;;;;;;;5062010;28;20499;-74
2023/09/14 07:16:28;;;;;;;0.65;0.45;;;;;;;;;;5060710;28;20044;-73
2023/09/14 07:19:00;;;;;;;0.70;0.40;;;;;;;;;;5061969;28;20055;-74
2023/09/14 07:21:36;;;;;;;1.73;0.70;;;;;;;;;;5061970;28;20056;-75
2023/09/14 07:24:07;;;;;;;;;;;;;;;;;;5062227;28;20060;-74
2023/09/14 07:26:40;;;;;;;1.00;0.50;;;;;;;;;;5061321;28;19935;-73
2023/09/14 07:29:12;;;;;;;3.15;0.63;;;;;;;;;;5061841;28;20052;-74
2023/09/14 07:31:44;;;;;;;2.80;0.60;;;;;;;;;;5061533;28;20033;-74
2023/09/14 07:34:15;;;;;;;3.78;0.52;;;;;;;;;;5061301;28;20395;-73
2023/09/14 07:36:46;;;;;;;1.17;0.40;;;;;;;;;;5062458;28;20048;-74
2023/09/14 07:39:18;;;;;;;0.77;0.55;;;;;;;;;;5061706;28;20629;-73
2023/09/14 07:42:00;;;;;;;2.40;0.57;;;;;;;;;;5061794;28;20051;-73
2023/09/14 07:44:31;;;;;;;1.63;0.40;;;;;;;;;;5061377;28;20390;-75
2023/09/14 07:47:02;;;;;;;1.83;0.45;;;;;;;;;;5062193;28;20051;-74
2023/09/14 07:49:34;;;;;;;0.40;0.25;;;;;;;;;;5060411;28;20048;-74
2023/09/14 07:52:06;;;;;;;6.88;0.60;;;;;;;;;;5060278;28;20052;-74
2023/09/14 07:54:37;;;;;;;1.05;0.50;;;;;;;;;;5061576;28;20389;-76
2023/09/14 07:57:07;;;;;;;0.20;0.20;;;;;;;;;;5061361;28;20055;-74
2023/09/14 07:59:39;;;;;;;0.20;0.20;;;;;;;;;;5061372;28;20048;-76
2023/09/14 08:02:10;;;;;;;0.43;0.43;;;;;;;;;;5061005;28;20060;-74
2023/09/14 08:04:41;;;;;;;0.30;0.30;;;;;;;;;;5061172;28;20052;-74
2023/09/14 08:07:12;;;;;;;0.65;0.20;;;;;;;;;;5061770;28;20055;-74
2023/09/14 08:09:46;;;;;;;1.25;0.40;;;;;;;;;;5061607;28;20048;-73
2023/09/14 08:12:17;;;;;;;1.13;0.40;;;;;;;;;;5061034;28;20040;-73
2023/09/14 08:14:48;;;;;;;0.85;0.40;;;;;;;;;;5059731;28;20075;-75
2023/09/14 08:17:22;;;;;;;0.30;0.22;;;;;;;;;;5060502;28;20052;-74
2023/09/14 08:19:54;;;;;;;6.50;0.30;;;;;;;;;;5060783;28;20136;-73
2023/09/14 08:22:25;;;;;;;0.25;0.25;;;;;;;;;;5061610;28;21183;-73
2023/09/14 08:25:00;;;;;;;0.52;0.20;;;;;;;;;;5061350;28;20510;-74
2023/09/14 08:27:31;;;;;;;0.20;0.20;;;;;;;;;;5062596;28;20045;-74
2023/09/14 08:30:02;;;;;;;0.52;0.30;;;;;;;;;;5064674;28;20052;-74
2023/09/14 08:32:34;;;;;;;0.40;0.30;;;;;;;;;;5065165;28;20384;-73
2023/09/14 08:35:40;;;;;;;0.60;0.20;;;;;;;;;;5064795;28;20056;-74
2023/09/14 08:38:11;;;;;;;1.15;0.40;;;;;;;;;;4982270;28;20062;-73
2023/09/14 08:40:46;;;;;;;0.40;0.40;;;;;;;;;;5052758;28;20095;-74
2023/09/14 08:43:19;;;;;;;0.40;0.30;;;;;;;;;;5063141;28;20055;-74
2023/09/14 08:45:50;;;;;;;0.45;0.40;;;;;;;;;;5064579;28;20048;-73
2023/09/14 08:48:26;;;;;;;1.25;0.28;;;;;;;;;;5064727;28;20052;-74
2023/09/14 08:51:00;;;;;;;1.30;0.40;;;;;;;;;;5064277;28;20044;-73
2023/09/14 08:53:32;;;;;;;0.40;0.40;;;;;;;;;;5064840;28;20496;-73
2023/09/14 08:56:06;;;;;;;0.30;0.30;;;;;;;;;;5064570;28;20045;-75
2023/09/14 08:58:37;;;;;;;0.20;0.20;;;;;;;;;;5063756;28;20515;-73
2023/09/14 09:01:10;;;;;;;0.60;0.20;;;;;;;;;;5065193;28;20048;-74
2023/09/14 09:03:42;;;;;;;0.80;0.22;;;;;;;;;;5064284;28;20053;-75
2023/09/14 09:06:17;;;;;;;0.20;0.20;;;;;;;;;;5065163;28;20051;-73
2023/09/14 09:08:48;;;;;;;0.80;0.45;;;;;;;;;;5064428;28;20048;-74
2023/09/14 09:11:19;;;;;;;0.03;0.03;;;;;;;;;;5063933;28;20389;-72
2023/09/14 09:13:50;;;;;;;2.38;0.20;;;;;;;;;;5063993;28;20048;-73
2023/09/14 09:16:21;;;;;;;1.02;0.30;;;;;;;;;;5063782;28;20045;-74
2023/09/14 09:19:06;;;;;;;0.43;0.30;;;;;;;;;;5064389;28;20049;-73
2023/09/14 09:21:42;;;;;;;0.30;0.30;;;;;;;;;;5064702;28;20048;-73
2023/09/14 09:24:26;;;;;;;0.60;0.60;;;;;;;;;;5062139;28;20099;-80
2023/09/14 09:26:57;;;;;;;0.50;0.50;;;;;;;;;;5064243;28;20044;-72
2023/09/14 09:29:28;;;;;;;0.55;0.55;;;;;;;;;;5063461;28;20051;-73
2023/09/14 09:32:00;;;;;;;1.80;0.55;;;;;;;;;;5061752;28;20086;-74
2023/09/14 09:34:34;;;;;;;0.60;0.30;;;;;;;;;;5046318;28;20052;-73
2023/09/14 09:37:05;;;;;;;1.60;0.40;;;;;;;;;;5064077;28;20537;-74
2023/09/14 09:39:36;;;;;;;4.10;0.80;;;;;;;;;;5063506;28;20087;-75
2023/09/14 09:42:10;;;;;;;0.57;0.50;;;;;;;;;;5063999;28;20414;-75
2023/09/14 09:44:42;;;;;;;1.88;0.80;;;;;;;;;;5063600;28;20075;-74
2023/09/14 09:47:12;;;;;;;1.75;0.68;;;;;;;;;;5063113;28;20048;-75
2023/09/14 09:49:44;;;;;;;0.60;0.60;;;;;;;;;;5063440;28;20052;-75
2023/09/14 09:52:16;;;;;;;3.53;1.15;;;;;;;;;;5061667;28;20052;-73
2023/09/14 09:54:48;;;;;;;0.95;0.75;;;;;;;;;;5063179;28;20096;-74
2023/09/14 09:57:20;;;;;;;1.15;0.70;;;;;;;;;;5063286;28;20044;-75
2023/09/14 09:59:51;;;;;;;2.15;0.85;;;;;;;;;;5061828;28;20523;-73
2023/09/14 10:02:32;;;;;;;1.15;0.88;;;;;;;;;;5062887;28;20052;-74
2023/09/14 10:05:04;;;;;;;0.98;0.68;;;;;;;;;;5063307;28;20507;-73
2023/09/14 10:07:42;;;;;;;1.17;0.50;;;;;;;;;;5063967;28;20051;-73
2023/09/14 10:10:13;;;;;;;0.85;0.57;;;;;;;;;;5062873;28;20403;-73
2023/09/14 10:12:44;;;;;;;0.30;0.30;;;;;;;;;;5063464;28;20044;-79
2023/09/14 10:15:17;;;;;;;2.05;0.63;;;;;;;;;;5062958;28;20459;-74
2023/09/14 10:17:52;;;;;;;1.40;1.30;;;;;;;;;;5063077;28;20052;-75
2023/09/14 10:20:24;;;;;;;0.88;0.65;;;;;;;;;;5062777;28;20411;-74
2023/09/14 10:22:55;;;;;;;0.40;0.40;;;;;;;;;;5062682;28;20067;-73
2023/09/14 10:25:28;;;;;;;2.25;0.55;;;;;;;;;;5062499;28;20068;-74
2023/09/14 10:28:01;;;;;;;0.65;0.65;;;;;;;;;;5063118;28;20060;-74
2023/09/14 10:30:32;;;;;;;6.63;3.60;;;;;;;;;;5063124;28;20492;-74
2023/09/14 10:33:05;;;;;;;1.65;0.70;;;;;;;;;;5063208;28;20078;-75
2023/09/14 10:35:40;;;;;;;0.45;0.45;;;;;;;;;;5060942;28;20059;-75
2023/09/14 10:38:13;;;;;;;0.30;0.30;;;;;;;;;;5068432;28;20044;-74
2023/09/14 10:40:45;;;;;;;1.95;0.65;;;;;;;;;;5082086;28;20048;-73
2023/09/14 10:43:17;;;;;;;0.60;0.45;;;;;;;;;;5082361;28;20048;-74
2023/09/14 10:45:56;;;;;;;1.77;0.38;;;;;;;;;;5082650;28;20055;-73
2023/09/14 10:48:29;;;;;;;1.38;0.80;;;;;;;;;;5082366;28;20048;-75
2023/09/14 10:51:00;;;;;;;0.35;0.30;;;;;;;;;;5081419;28;20051;-81
2023/09/14 10:53:32;;;;;;;2.85;0.45;;;;;;;;;;5082411;28;20051;-74
2023/09/14 10:56:04;;;;;;;0.43;0.43;;;;;;;;;;5082186;28;20047;-74
2023/09/14 10:58:43;;;;;;;0.80;0.40;;;;;;;;;;5080322;28;20051;-73
2023/09/14 11:01:22;;;;;;;1.20;0.57;;;;;;;;;;5080107;28;20533;-74
2023/09/14 11:04:12;;;;;;;9.77;7.93;;;;;;;;;;5082251;28;20071;-74
2023/09/14 11:06:50;;;;;;;0.55;0.50;;;;;;;;;;5082953;28;20411;-73
2023/09/14 11:09:24;;;;;;;4.80;0.88;;;;;;;;;;5081789;28;20055;-73
2023/09/14 11:11:55;;;;;;;0.40;0.40;;;;;;;;;;5081005;28;20499;-74
2023/09/14 11:14:28;;;;;;;2.20;0.63;;;;;;;;;;5081656;28;20067;-74
2023/09/14 11:17:02;;;;;;;2.10;1.63;;;;;;;;;;5081719;28;20044;-74
2023/09/14 11:19:33;;;;;;;1.92;0.55;;;;;;;;;;5082146;28;20605;-74
2023/09/14 11:22:25;;;;;;;1.00;0.32;;;;;;;;;;5081873;28;20048;-75
2023/09/14 11:24:59;;;;;;;2.65;0.60;;;;;;;;;;5081582;28;20048;-73
2023/09/14 11:27:41;;;;;;;5.20;1.10;;;;;;;;;;5081623;28;20055;-74
2023/09/14 11:30:15;;;;;;;1.85;0.50;;;;;;;;;;5081561;28;20099;-73
2023/09/14 11:32:49;;;;;;;0.30;0.30;;;;;;;;;;5081742;28;20050;-77
2023/09/14 11:35:46;;;;;;;1.70;0.50;;;;;;;;;;5082567;28;20051;-73
2023/09/14 11:38:25;;;;;;;2.00;0.43;;;;;;;;;;5080141;28;20047;-74
2023/09/14 11:41:03;;;;;;;1.27;0.50;;;;;;;;;;5082049;28;20044;-74
2023/09/14 11:44:04;;;;;;;1.70;0.60;;;;;;;;;;5081475;28;20040;-74
2023/09/14 11:46:58;;;;;;;2.97;0.70;;;;;;;;;;5082114;28;20048;-74
2023/09/14 11:49:40;;;;;;;1.88;0.68;;;;;;;;;;5081260;28;20044;-74
2023/09/14 11:52:13;;;;;;;0.85;0.75;;;;;;;;;;5082271;28;20063;-76
2023/09/14 11:54:51;;;;;;;1.50;0.70;;;;;;;;;;5082409;28;20043;-74
2023/09/14 11:57:28;;;;;;;0.90;0.40;;;;;;;;;;5081700;28;20048;-74
2023/09/14 12:00:01;;;;;;;1.13;0.52;;;;;;;;;;5081270;28;20545;-74
2023/09/14 12:02:32;;;;;;;0.40;0.40;;;;;;;;;;5087878;28;20044;-74
2023/09/14 12:05:03;;;;;;;2.28;0.75;;;;;;;;;;5085849;28;20474;-74
2023/09/14 12:07:35;;;;;;;2.00;0.80;;;;;;;;;;5085615;28;20048;-74
2023/09/14 12:10:25;;;;;;;1.80;1.42;;;;;;;;;;5085319;28;20058;-73
2023/09/14 12:12:56;;;;;;;0.95;0.73;;;;;;;;;;5085435;28;20048;-75
2023/09/14 12:15:29;;;;;;;2.15;1.05;;;;;;;;;;5085491;28;20822;-78
2023/09/14 12:18:00;;;;;;;0.57;0.55;;;;;;;;;;5085284;28;20052;-74
2023/09/14 12:20:35;;;;;;;1.63;0.40;;;;;;;;;;5085263;28;20399;-73
2023/09/14 12:23:09;;;;;;;0.57;0.50;;;;;;;;;;5084008;28;20048;-73
2023/09/14 12:25:40;;;;;;;1.83;0.90;;;;;;;;;;5086204;28;20055;-76
2023/09/14 12:28:13;;;;;;;1.30;0.60;;;;;;;;;;5085189;28;20051;-74
2023/09/14 12:30:45;;;;;;;0.85;0.60;;;;;;;;;;5083726;28;20499;-73
2023/09/14 12:33:17;;;;;;;6.25;0.80;;;;;;;;;;5085017;28;20063;-74
2023/09/14 12:35:48;;;;;;;0.55;0.43;;;;;;;;;;5085682;28;20407;-75
2023/09/14 12:38:19;;;;;;;5.13;0.60;;;;;;;;;;5068727;28;20054;-79
2023/09/14 12:40:54;;;;;;;2.85;0.73;;;;;;;;;;5085440;28;20055;-74
2023/09/14 12:43:26;;;;;;;1.65;0.40;;;;;;;;;;5085126;28;20048;-74
2023/09/14 12:45:58;;;;;;;0.93;0.40;;;;;;;;;;5084500;28;20062;-74
2023/09/14 12:48:30;;;;;;;3.70;0.75;;;;;;;;;;5083889;28;20051;-74
2023/09/14 12:51:05;;;;;;;1.45;0.55;;;;;;;;;;5085086;28;20047;-74
2023/09/14 12:53:43;;;;;;;1.25;0.45;;;;;;;;;;5085507;28;20048;-74
2023/09/14 12:56:14;;;;;;;1.40;0.43;;;;;;;;;;5066374;28;20059;-74
2023/09/14 12:58:46;;;;;;;1.30;0.60;;;;;;;;;;5085261;28;20051;-74
2023/09/14 13:01:19;;;;;;;6.55;0.60;;;;;;;;;;5084642;28;20510;-75
2023/09/14 13:03:51;;;;;;;5.45;0.50;;;;;;;;;;5083197;28;20052;-74
2023/09/14 13:06:22;;;;;;;1.98;0.70;;;;;;;;;;5083746;28;20055;-74
2023/09/14 13:08:53;;;;;;;1.58;0.32;;;;;;;;;;5084635;28;20047;-75
2023/09/14 13:11:31;;;;;;;1.70;0.75;;;;;;;;;;5084489;28;20411;-74
2023/09/14 13:14:06;;;;;;;2.45;0.85;;;;;;;;;;5083943;28;20052;-75
2023/09/14 13:16:53;;;;;;;5.70;0.98;;;;;;;;;;5084536;28;20058;-74
2023/09/14 13:19:25;;;;;;;6.90;1.20;;;;;;;;;;5084291;28;20439;-74
2023/09/14 13:22:05;;;;;;;3.65;0.77;;;;;;;;;;5084507;28;20044;-74
2023/09/14 13:24:36;;;;;;;2.95;0.90;;;;;;;;;;5085912;28;20067;-80
2023/09/14 13:27:07;;;;;;;4.70;1.38;;;;;;;;;;5084377;28;20521;-75
2023/09/14 13:29:38;;;;;;;2.92;0.75;;;;;;;;;;5084059;28;20396;-77
2023/09/14 13:32:11;;;;;;;4.82;0.95;;;;;;;;;;5084339;28;20048;-74
2023/09/14 13:34:41;;;;;;;2.83;0.70;;;;;;;;;;5084342;28;20499;-74
2023/09/14 13:37:12;;;;;;;6.45;0.82;;;;;;;;;;5084017;28;20442;-75
2023/09/14 13:39:44;;;;;;;4.32;1.55;;;;;;;;;;5084485;28;20051;-75
2023/09/14 13:42:15;;;;;;;4.22;1.02;;;;;;;;;;5084246;28;20052;-74
2023/09/14 13:44:47;;;;;;;5.25;1.50;;;;;;;;;;5084203;28;20384;-76
2023/09/14 13:47:17;;;;;;;1.73;0.90;;;;;;;;;;5083814;28;20051;-75
2023/09/14 13:49:49;;;;;;;1.85;0.80;;;;;;;;;;5083748;28;20040;-75
2023/09/14 13:52:23;;;;;;;5.65;0.98;;;;;;;;;;5083114;28;20052;-76
2023/09/14 13:54:55;;;;;;;4.57;1.25;;;;;;;;;;5082487;28;20063;-74
2023/09/14 13:57:26;;;;;;;4.72;1.20;;;;;;;;;;5083481;28;20052;-75
2023/09/14 13:59:57;;;;;;;3.22;1.00;;;;;;;;;;5083766;28;20043;-76
2023/09/14 14:02:42;;;;;;;6.30;1.90;;;;;;;;;;5084262;28;20418;-75
2023/09/14 14:05:13;;;;;;;6.80;0.73;;;;;;;;;;5084147;28;20522;-74
2023/09/14 14:07:43;;;;;;;2.45;0.77;;;;;;;;;;5081035;28;20056;-74
2023/09/14 14:10:16;;;;;;;2.08;0.88;;;;;;;;;;5081696;28;20326;-76
2023/09/14 14:12:47;;;;;;;1.70;0.40;;;;;;;;;;5083512;28;20059;-76
2023/09/14 14:15:18;;;;;;;1.85;0.50;;;;;;;;;;5083377;28;20094;-75
2023/09/14 14:17:48;;;;;;;1.40;0.40;;;;;;;;;;5083086;28;20774;-76
2023/09/14 14:20:22;;;;;;;3.65;0.73;;;;;;;;;;5083213;28;20047;-76
2023/09/14 14:22:53;;;;;;;1.05;0.40;;;;;;;;;;5083039;28;20052;-75
2023/09/14 14:25:23;;;;;;;3.33;0.50;;;;;;;;;;5081862;28;20811;-75
2023/09/14 14:27:54;;;;;;;7.82;0.85;;;;;;;;;;5082632;28;20521;-75
2023/09/14 14:30:25;;;;;;;4.03;0.57;;;;;;;;;;5082765;28;20503;-75
2023/09/14 14:32:56;;;;;;;3.20;0.70;;;;;;;;;;5083581;28;20390;-77
2023/09/14 14:35:28;;;;;;;2.20;0.90;;;;;;;;;;5083297;28;20051;-74
2023/09/14 14:37:58;;;;;;;2.53;0.80;;;;;;;;;;5082713;28;20052;-76
2023/09/14 14:40:30;;;;;;;3.38;0.60;;;;;;;;;;5080917;28;20055;-76
2023/09/14 14:43:04;;;;;;;3.83;0.82;;;;;;;;;;5080539;28;20068;-76
2023/09/14 14:45:36;;;;;;;6.47;0.80;;;;;;;;;;5080662;28;20067;-73
2023/09/14 14:48:07;;;;;;;0.80;0.57;;;;;;;;;;5081263;28;20043;-82
2023/09/14 14:50:39;;;;;;;1.48;1.00;;;;;;;;;;5082659;28;20050;-74
2023/09/14 14:53:10;;;;;;;5.70;1.60;;;;;;;;;;5081556;28;20056;-74
2023/09/14 14:55:42;;;;;;;1.38;0.50;;;;;;;;;;5082194;28;20055;-76
2023/09/14 14:58:12;;;;;;;3.78;0.63;;;;;;;;;;5079737;28;20056;-76
2023/09/14 15:00:44;;;;;;;5.75;0.88;;;;;;;;;;5079598;28;20064;-76
2023/09/14 15:03:15;;;;;;;2.75;0.77;;;;;;;;;;5081746;28;20047;-76
2023/09/14 15:05:47;;;;;;;1.98;1.30;;;;;;;;;;5082575;28;20044;-76
2023/09/14 15:08:17;;;;;;;1.20;0.57;;;;;;;;;;5082673;28;20055;-77
2023/09/14 15:10:50;;;;;;;5.50;1.08;;;;;;;;;;5081503;28;20056;-77
2023/09/14 15:13:21;;;;;;;1.58;0.65;;;;;;;;;;5079822;28;20066;-76
2023/09/14 15:15:52;;;;;;;3.10;1.08;;;;;;;;;;5081789;28;20048;-75
2023/09/14 15:18:22;;;;;;;2.20;0.70;;;;;;;;;;5082556;28;20503;-74